Time;durP1;ratioP1;P1;durP2;ratioP2;P2;SDS_P1;SDS_P2;PMS_P1;PMS_P2;Temp;Humidity;BMP_temperature;BMP_pressure;BME280_temperature;BME280_humidity;BME280_pressure;Samples;Min_cycle;Max_cycle;Signal;HPM_P1;HPM_P2
2022/11/30 00:01:44;;;;;;;0.70;0.65;;;;;;;5.12;100.00;100586.59;5029883;28;20057;-76
2022/11/30 00:04:12;;;;;;;6.80;0.85;;;;;;;5.10;100.00;100580.50;5027347;28;20053;-78
2022/11/30 00:06:43;;;;;;;2.90;0.77;;;;;;;5.12;100.00;100586.59;5020543;28;20053;-76
2022/11/30 00:09:12;;;;;;;2.78;1.00;;;;;;;5.04;100.00;100575.09;5017901;28;20050;-73
2022/11/30 00:11:40;;;;;;;0.77;0.57;;;;;;;4.96;100.00;100568.72;5021611;28;20137;-75
2022/11/30 00:14:09;;;;;;;3.25;1.52;;;;;;;4.99;100.00;100566.28;5024796;28;21272;-75
2022/11/30 00:16:38;;;;;;;1.75;0.70;;;;;;;5.00;100.00;100562.94;5028109;28;20034;-77
2022/11/30 00:19:08;;;;;;;1.35;0.63;;;;;;;4.99;100.00;100556.03;5027023;28;20064;-76
2022/11/30 00:21:37;;;;;;;0.77;0.65;;;;;;;5.02;100.00;100557.06;5025800;28;20096;-75
2022/11/30 00:24:07;;;;;;;2.55;1.50;;;;;;;5.06;100.00;100552.94;5024688;28;20593;-74
2022/11/30 00:26:36;;;;;;;1.48;0.65;;;;;;;4.97;100.00;100557.63;5020506;28;20064;-79
2022/11/30 00:29:04;;;;;;;0.70;0.40;;;;;;;4.99;100.00;100558.59;5018733;28;20080;-74
2022/11/30 00:31:33;;;;;;;1.48;0.80;;;;;;;4.96;100.00;100551.63;5027126;28;20053;-77
2022/11/30 00:34:02;;;;;;;1.50;0.93;;;;;;;4.98;100.00;100557.72;5033905;28;20053;-74
2022/11/30 00:36:32;;;;;;;0.75;0.60;;;;;;;4.87;100.00;100547.75;5031993;28;20037;-75
2022/11/30 00:39:01;;;;;;;3.20;0.80;;;;;;;4.94;100.00;100544.66;5032355;28;20447;-78
2022/11/30 00:41:29;;;;;;;0.95;0.75;;;;;;;4.90;100.00;100535.06;5032830;28;20051;-77
2022/11/30 00:44:04;;;;;;;0.50;0.50;;;;;;;4.91;100.00;100535.16;5027324;28;20064;-77
2022/11/30 00:46:33;;;;;;;0.98;0.65;;;;;;;4.99;100.00;100526.16;5028666;28;20051;-77
2022/11/30 00:49:01;;;;;;;1.23;0.80;;;;;;;4.97;100.00;100522.63;5016496;28;20542;-77
2022/11/30 00:51:32;;;;;;;1.67;0.73;;;;;;;4.97;100.00;100514.94;5019053;28;20048;-75
2022/11/30 00:54:01;;;;;;;1.15;0.60;;;;;;;4.91;100.00;100514.63;5016938;28;20038;-78
2022/11/30 00:56:29;;;;;;;2.13;0.95;;;;;;;4.96;100.00;100510.59;5031755;28;20045;-76
2022/11/30 00:58:58;;;;;;;0.93;0.70;;;;;;;4.95;100.00;100500.31;5031481;28;20067;-76
2022/11/30 01:01:26;;;;;;;1.23;0.57;;;;;;;4.98;100.00;100492.75;5033152;28;20053;-73
2022/11/30 01:03:55;;;;;;;2.55;0.90;;;;;;;4.93;100.00;100501.91;5028147;28;20045;-76
2022/11/30 01:06:24;;;;;;;1.90;0.82;;;;;;;4.95;100.00;100497.72;5021790;28;20041;-76
2022/11/30 01:08:54;;;;;;;1.65;0.90;;;;;;;4.95;100.00;100488.34;5033602;28;20073;-74
2022/11/30 01:11:25;;;;;;;1.95;0.93;;;;;;;4.90;100.00;100487.25;5032555;28;20049;-75
2022/11/30 01:13:54;;;;;;;1.00;0.68;;;;;;;4.87;100.00;100483.66;5032808;28;20049;-75
2022/11/30 01:16:25;;;;;;;3.10;0.85;;;;;;;4.89;100.00;100474.34;5030634;28;20487;-76
2022/11/30 01:18:54;;;;;;;1.95;0.82;;;;;;;4.83;100.00;100478.41;5031451;28;20045;-74
2022/11/30 01:21:25;;;;;;;1.88;0.80;;;;;;;4.87;100.00;100470.84;5024473;28;20554;-76
2022/11/30 01:23:56;;;;;;;1.38;0.82;;;;;;;4.83;100.00;100460.44;5026814;28;20050;-79
2022/11/30 01:26:25;;;;;;;2.05;0.88;;;;;;;4.78;100.00;100466.16;5031047;28;20077;-73
2022/11/30 01:28:54;;;;;;;1.48;0.80;;;;;;;4.80;100.00;100455.16;5032476;28;20041;-76
2022/11/30 01:31:24;;;;;;;3.28;0.80;;;;;;;4.78;100.00;100455.88;5030539;28;20517;-78
2022/11/30 01:33:54;;;;;;;1.40;1.08;;;;;;;4.75;100.00;100441.25;5032242;28;20053;-78
2022/11/30 01:36:24;;;;;;;1.50;0.88;;;;;;;4.83;100.00;100439.03;5029947;28;20058;-82
2022/11/30 01:38:57;;;;;;;2.78;1.23;;;;;;;4.87;100.00;100433.25;5025760;28;20041;-77
2022/11/30 01:41:27;;;;;;;2.05;0.70;;;;;;;4.78;100.00;100417.44;5017715;28;20053;-76
2022/11/30 01:43:57;;;;;;;2.10;1.20;;;;;;;4.82;100.00;100417.66;5015976;28;20099;-75
2022/11/30 01:46:32;;;;;;;2.88;1.10;;;;;;;4.81;100.00;100421.03;5024395;28;20439;-77
2022/11/30 01:49:14;;;;;;;1.67;1.15;;;;;;;4.88;100.00;100401.72;5028197;28;20054;-76
2022/11/30 01:51:45;;;;;;;2.72;1.40;;;;;;;4.91;100.00;100395.84;5031645;28;20045;-75
2022/11/30 01:54:17;;;;;;;3.03;1.17;;;;;;;4.90;100.00;100388.94;5024764;28;20500;-76
2022/11/30 01:56:49;;;;;;;2.03;1.20;;;;;;;4.87;100.00;100388.81;5023710;28;20045;-73
2022/11/30 01:59:19;;;;;;;3.20;1.05;;;;;;;4.81;100.00;100374.91;5026438;28;20042;-77
2022/11/30 02:01:56;;;;;;;3.08;1.27;;;;;;;4.86;100.00;100385.38;5031055;28;20057;-75
2022/11/30 02:04:28;;;;;;;2.78;1.58;;;;;;;4.82;100.00;100376.66;5030988;28;20651;-76
2022/11/30 02:06:58;;;;;;;2.60;1.67;;;;;;;4.88;100.00;100367.47;5031488;28;20372;-76
2022/11/30 02:09:30;;;;;;;3.25;1.27;;;;;;;4.90;100.00;100363.28;5028761;28;20488;-76
2022/11/30 02:12:01;;;;;;;2.13;1.17;;;;;;;4.90;100.00;100368.44;5028556;28;20466;-74
2022/11/30 02:14:36;;;;;;;3.45;1.60;;;;;;;4.92;100.00;100369.38;5026413;28;20550;-76
2022/11/30 02:17:18;;;;;;;2.13;1.02;;;;;;;4.88;100.00;100354.66;5023683;28;20076;-76
2022/11/30 02:20:34;;;;;;;2.05;1.08;;;;;;;4.91;100.00;100354.81;5023423;28;20054;-73
2022/11/30 02:23:41;;;;;;;2.30;1.05;;;;;;;4.94;100.00;100355.81;4996548;28;20060;-77
2022/11/30 02:26:27;;;;;;;2.03;1.10;;;;;;;4.96;100.00;100333.69;5023672;28;20085;-75
2022/11/30 02:29:07;;;;;;;1.60;1.00;;;;;;;4.99;100.00;100331.28;5031927;28;20041;-76
2022/11/30 02:31:44;;;;;;;2.90;1.50;;;;;;;4.96;100.00;100318.31;5026989;28;20056;-76
2022/11/30 02:34:16;;;;;;;1.85;1.05;;;;;;;5.01;100.00;100321.94;5024441;28;20057;-76
2022/11/30 02:36:47;;;;;;;2.08;1.02;;;;;;;5.02;100.00;100328.84;5021183;28;20076;-75
2022/11/30 02:39:15;;;;;;;2.47;1.55;;;;;;;4.99;100.00;100308.22;5030522;28;20459;-74
2022/11/30 02:41:44;;;;;;;1.80;1.00;;;;;;;5.04;100.00;100299.03;5029031;28;20048;-75
2022/11/30 02:44:16;;;;;;;1.42;0.75;;;;;;;5.03;100.00;100304.06;5028517;28;20087;-73
2022/11/30 02:47:01;;;;;;;2.33;1.33;;;;;;;5.03;100.00;100288.69;5020445;28;20049;-72
2022/11/30 02:49:36;;;;;;;1.88;1.27;;;;;;;5.07;100.00;100280.34;5022650;28;20100;-72
2022/11/30 02:52:07;;;;;;;2.40;1.13;;;;;;;5.05;100.00;100276.81;5028264;28;20509;-71
2022/11/30 02:54:36;;;;;;;1.58;1.10;;;;;;;5.08;100.00;100274.38;5026932;28;20061;-72
2022/11/30 02:57:05;;;;;;;2.67;1.52;;;;;;;5.09;100.00;100255.63;5018781;28;20068;-72
2022/11/30 02:59:35;;;;;;;2.17;1.30;;;;;;;5.08;100.00;100253.88;5025458;28;20068;-73
2022/11/30 03:02:04;;;;;;;2.95;1.50;;;;;;;5.10;100.00;100244.56;5027232;28;20141;-72
2022/11/30 03:04:33;;;;;;;1.40;1.10;;;;;;;5.13;100.00;100234.44;5027540;28;21220;-73
2022/11/30 03:07:01;;;;;;;2.65;1.38;;;;;;;5.05;100.00;100235.78;5028263;28;20053;-74
2022/11/30 03:09:30;;;;;;;2.00;1.20;;;;;;;5.11;100.00;100222.34;5022902;28;20046;-75
2022/11/30 03:11:59;;;;;;;2.00;1.38;;;;;;;5.13;100.00;100223.28;5025691;28;20094;-72
2022/11/30 03:14:27;;;;;;;2.47;1.30;;;;;;;5.09;100.00;100226.56;5030310;28;20089;-73
2022/11/30 03:16:58;;;;;;;1.55;1.30;;;;;;;5.09;100.00;100201.78;5026574;28;20104;-72
2022/11/30 03:19:26;;;;;;;3.17;1.42;;;;;;;5.08;100.00;100207.72;5027456;28;20562;-72
2022/11/30 03:21:55;;;;;;;1.92;1.45;;;;;;;5.10;100.00;100202.66;5031215;28;20147;-72
2022/11/30 03:24:24;;;;;;;2.85;1.55;;;;;;;5.09;100.00;100201.78;5023950;28;20046;-74
2022/11/30 03:26:53;;;;;;;2.15;1.58;;;;;;;5.11;100.00;100204.41;5025635;28;20051;-72
2022/11/30 03:29:21;;;;;;;3.88;1.52;;;;;;;5.12;100.00;100191.66;5027584;28;20052;-73
2022/11/30 03:31:50;;;;;;;2.03;1.45;;;;;;;5.12;100.00;100183.09;5027625;28;20041;-73
2022/11/30 03:34:21;;;;;;;2.78;1.60;;;;;;;5.12;100.00;100190.78;5029927;28;20045;-72
2022/11/30 03:36:50;;;;;;;3.95;1.38;;;;;;;5.12;100.00;100186.53;5026879;28;20049;-72
2022/11/30 03:39:18;;;;;;;1.90;1.27;;;;;;;5.18;100.00;100186.78;5029522;28;20056;-75
2022/11/30 03:41:47;;;;;;;2.40;1.55;;;;;;;5.20;100.00;100180.03;5036356;28;20068;-74
2022/11/30 03:44:16;;;;;;;1.23;0.98;;;;;;;5.20;100.00;100172.34;5018492;28;20128;-74
2022/11/30 03:46:44;;;;;;;3.58;1.30;;;;;;;5.18;100.00;100175.66;5021646;28;20645;-74
2022/11/30 03:49:13;;;;;;;2.92;1.05;;;;;;;5.09;100.00;100171.00;5023622;28;20387;-75
2022/11/30 03:51:43;;;;;;;2.63;1.33;;;;;;;5.11;100.00;100171.06;5023801;28;20046;-76
2022/11/30 03:54:12;;;;;;;2.13;1.40;;;;;;;5.10;100.00;100157.38;5014687;28;20605;-72
2022/11/30 03:56:41;;;;;;;2.38;1.58;;;;;;;5.11;100.00;100158.22;5012486;28;20049;-73
2022/11/30 03:59:09;;;;;;;2.75;1.45;;;;;;;5.13;100.00;100157.50;5019035;28;20045;-74
2022/11/30 04:01:39;;;;;;;2.65;1.00;;;;;;;5.11;100.00;100155.66;5023201;28;20042;-73
2022/11/30 04:04:08;;;;;;;2.88;1.20;;;;;;;5.18;100.00;100150.88;5032649;28;20573;-75
2022/11/30 04:06:37;;;;;;;2.30;1.55;;;;;;;5.15;100.00;100135.34;5025502;28;20053;-75
2022/11/30 04:09:07;;;;;;;1.85;1.27;;;;;;;5.15;100.00;100145.59;5031973;28;20045;-74
2022/11/30 04:11:36;;;;;;;2.25;1.30;;;;;;;5.19;100.00;100142.34;5029416;28;20053;-75
2022/11/30 04:14:05;;;;;;;1.75;1.42;;;;;;;5.18;100.00;100140.63;5030454;28;20160;-75
2022/11/30 04:16:33;;;;;;;4.18;1.42;;;;;;;5.22;100.00;100137.38;5031909;28;20045;-74
2022/11/30 04:19:02;;;;;;;4.28;1.40;;;;;;;5.17;100.00;100128.59;5032632;28;20049;-73
2022/11/30 04:21:31;;;;;;;5.03;1.90;;;;;;;5.23;100.00;100128.84;5034095;28;20073;-75
2022/11/30 04:23:59;;;;;;;1.63;1.10;;;;;;;5.21;100.00;100122.78;5033042;28;20049;-75
2022/11/30 04:26:30;;;;;;;2.72;1.05;;;;;;;5.22;100.00;100116.84;5033960;28;20088;-74
2022/11/30 04:28:59;;;;;;;3.88;1.50;;;;;;;5.28;100.00;100115.34;5024847;28;20077;-75
2022/11/30 04:31:27;;;;;;;3.60;2.15;;;;;;;5.27;100.00;100103.31;5031471;28;20042;-73
2022/11/30 04:33:56;;;;;;;1.77;1.00;;;;;;;5.22;100.00;100103.13;5033214;28;20144;-75
2022/11/30 04:36:25;;;;;;;4.20;1.58;;;;;;;5.31;100.00;100106.06;5029862;28;20129;-74
2022/11/30 04:38:53;;;;;;;2.25;1.35;;;;;;;5.33;100.00;100104.44;5020189;28;20125;-74
2022/11/30 04:41:22;;;;;;;2.22;1.33;;;;;;;5.36;100.00;100098.56;5027234;28;20676;-75
2022/11/30 04:43:52;;;;;;;2.15;1.35;;;;;;;5.41;100.00;100091.94;5023739;28;20061;-75
2022/11/30 04:46:21;;;;;;;3.25;1.58;;;;;;;5.45;100.00;100086.09;5021048;28;20535;-75
2022/11/30 04:48:50;;;;;;;2.00;1.38;;;;;;;5.55;100.00;100105.31;5031105;28;20080;-75
2022/11/30 04:51:18;;;;;;;2.53;1.50;;;;;;;5.52;100.00;100079.50;5034385;28;20041;-73
2022/11/30 04:53:47;;;;;;;3.40;1.67;;;;;;;5.57;100.00;100086.59;5031032;28;20060;-74
2022/11/30 04:56:16;;;;;;;1.42;1.10;;;;;;;5.59;100.00;100072.13;5033738;28;20043;-76
2022/11/30 04:58:47;;;;;;;2.72;1.35;;;;;;;5.58;100.00;100070.34;5028953;28;20053;-72
2022/11/30 05:01:17;;;;;;;1.95;1.45;;;;;;;5.62;100.00;100066.22;5030687;28;20131;-75
2022/11/30 05:03:46;;;;;;;2.28;1.42;;;;;;;5.66;100.00;100062.97;5023853;28;20049;-76
2022/11/30 05:06:15;;;;;;;1.70;1.20;;;;;;;5.73;100.00;100054.69;5031890;28;20060;-74
2022/11/30 05:08:43;;;;;;;3.08;1.40;;;;;;;5.75;100.00;100050.47;5031701;28;20119;-74
2022/11/30 05:11:12;;;;;;;2.13;1.38;;;;;;;5.78;100.00;100042.88;5030558;28;20050;-74
2022/11/30 05:13:41;;;;;;;1.95;1.00;;;;;;;5.81;100.00;100039.56;5034009;28;20144;-73
2022/11/30 05:16:10;;;;;;;3.22;1.67;;;;;;;5.82;100.00;100043.88;5028454;28;20053;-73
2022/11/30 05:18:41;;;;;;;1.85;1.67;;;;;;;5.73;100.00;100046.13;5030285;28;20095;-72
2022/11/30 05:21:10;;;;;;;1.38;1.27;;;;;;;5.76;100.00;100026.56;5029324;28;20072;-73
2022/11/30 05:23:39;;;;;;;2.70;1.20;;;;;;;5.83;100.00;100009.69;5030247;28;20520;-73
2022/11/30 05:26:08;;;;;;;4.20;1.70;;;;;;;5.85;100.00;100002.91;5032770;28;20049;-72
2022/11/30 05:28:37;;;;;;;4.63;1.60;;;;;;;5.83;100.00;99999.41;5026720;28;20685;-74
2022/11/30 05:31:06;;;;;;;3.85;1.92;;;;;;;5.83;100.00;100004.53;5030543;28;20050;-73
2022/11/30 05:33:35;;;;;;;2.92;1.58;;;;;;;5.81;100.00;100004.47;5029376;28;20133;-72
2022/11/30 05:36:05;;;;;;;2.85;2.08;;;;;;;5.86;100.00;99994.38;5031987;28;20045;-74
2022/11/30 05:38:34;;;;;;;4.38;1.83;;;;;;;5.86;100.00;99995.28;5031164;28;20075;-72
2022/11/30 05:41:03;;;;;;;3.88;2.17;;;;;;;5.90;100.00;99993.69;5032211;28;20509;-74
2022/11/30 05:43:32;;;;;;;4.22;1.80;;;;;;;5.92;100.00;99984.34;5032141;28;20103;-74
2022/11/30 05:46:01;;;;;;;4.35;2.60;;;;;;;5.92;100.00;99979.19;5032452;28;20060;-73
2022/11/30 05:48:30;;;;;;;2.40;1.55;;;;;;;5.98;100.00;99974.34;5030161;28;20045;-73
2022/11/30 05:51:08;;;;;;;2.38;1.75;;;;;;;6.00;100.00;99972.69;5026262;28;20515;-73
2022/11/30 05:53:37;;;;;;;4.32;2.13;;;;;;;6.00;100.00;99962.41;5023790;28;20080;-72
2022/11/30 05:56:07;;;;;;;9.52;2.03;;;;;;;6.02;100.00;99952.19;5021818;28;20045;-73
2022/11/30 05:58:36;;;;;;;2.53;1.63;;;;;;;6.02;100.00;99949.63;5022479;28;20088;-74
2022/11/30 06:01:05;;;;;;;4.20;1.92;;;;;;;6.11;100.00;99936.22;5031847;28;20400;-74
2022/11/30 06:03:35;;;;;;;2.10;1.65;;;;;;;6.06;100.00;99939.50;5032701;28;20056;-73
2022/11/30 06:06:04;;;;;;;3.90;1.70;;;;;;;6.05;100.00;99932.63;5029416;28;20193;-76
2022/11/30 06:08:34;;;;;;;5.13;1.58;;;;;;;6.14;100.00;99928.59;5032720;28;20053;-74
2022/11/30 06:11:03;;;;;;;3.42;1.77;;;;;;;6.18;100.00;99922.75;5020714;28;20049;-72
2022/11/30 06:13:32;;;;;;;4.35;1.85;;;;;;;6.16;100.00;99909.00;5032030;28;20050;-76
2022/11/30 06:16:01;;;;;;;3.80;1.73;;;;;;;6.22;100.00;99916.91;5030621;28;20045;-77
2022/11/30 06:18:30;;;;;;;4.45;2.25;;;;;;;6.28;100.00;99912.00;5033109;28;20053;-78
2022/11/30 06:21:02;;;;;;;6.20;1.65;;;;;;;6.29;100.00;99929.13;5031450;28;20046;-76
2022/11/30 06:23:31;;;;;;;2.47;1.77;;;;;;;6.29;100.00;99900.88;5022891;28;20495;-75
2022/11/30 06:26:05;;;;;;;2.53;1.70;;;;;;;6.36;100.00;99915.66;5025897;28;20041;-76
2022/11/30 06:28:34;;;;;;;2.92;1.15;;;;;;;6.36;100.00;99905.38;5033342;28;20525;-76
2022/11/30 06:31:04;;;;;;;1.90;1.08;;;;;;;6.35;100.00;99907.94;5023801;28;20051;-75
2022/11/30 06:33:33;;;;;;;3.00;1.98;;;;;;;6.35;100.00;99898.50;5021893;28;20046;-76
2022/11/30 06:36:02;;;;;;;2.80;2.10;;;;;;;6.38;100.00;99898.59;5027304;28;20124;-76
2022/11/30 06:38:31;;;;;;;1.75;1.45;;;;;;;6.41;100.00;99888.41;5018348;28;20519;-76
2022/11/30 06:41:06;;;;;;;3.85;1.80;;;;;;;6.43;100.00;99873.91;5029640;28;20048;-78
2022/11/30 06:43:36;;;;;;;3.95;1.63;;;;;;;6.44;100.00;99860.25;5030503;28;20041;-76
2022/11/30 06:46:05;;;;;;;2.35;1.80;;;;;;;6.40;100.00;99865.25;5006628;28;20065;-76
2022/11/30 06:48:34;;;;;;;5.70;2.05;;;;;;;6.37;100.00;99863.47;5005611;28;20479;-85
2022/11/30 06:51:05;;;;;;;2.33;1.40;;;;;;;6.35;100.00;99867.69;5010732;28;20053;-76
2022/11/30 06:53:34;;;;;;;2.05;1.70;;;;;;;6.35;100.00;99859.09;5011024;28;20046;-76
2022/11/30 06:56:07;;;;;;;2.13;1.30;;;;;;;6.35;100.00;99844.56;5009540;28;20072;-77
2022/11/30 06:58:37;;;;;;;2.80;1.67;;;;;;;6.31;100.00;99850.41;5010602;28;20053;-77
2022/11/30 07:01:06;;;;;;;2.70;1.63;;;;;;;6.36;100.00;99832.56;5022206;28;20042;-75
2022/11/30 07:03:35;;;;;;;2.80;1.70;;;;;;;6.33;100.00;99853.03;5009735;28;20086;-74
2022/11/30 07:06:08;;;;;;;3.33;1.80;;;;;;;6.30;100.00;99828.13;5006778;28;20103;-76
2022/11/30 07:08:37;;;;;;;2.33;1.92;;;;;;;6.33;100.00;99827.34;5007863;28;20046;-81
2022/11/30 07:11:09;;;;;;;2.95;1.50;;;;;;;6.39;100.00;99828.41;5010250;28;20088;-77
2022/11/30 07:13:38;;;;;;;1.70;1.30;;;;;;;6.38;100.00;99836.94;5009856;28;20142;-79
2022/11/30 07:16:10;;;;;;;2.03;1.15;;;;;;;6.34;100.00;99829.94;5010726;28;20340;-77
2022/11/30 07:18:39;;;;;;;2.65;1.67;;;;;;;6.36;100.00;99828.31;5012408;28;20050;-78
2022/11/30 07:21:08;;;;;;;3.15;1.45;;;;;;;6.35;100.00;99824.00;5012797;28;20073;-77
2022/11/30 07:26:25;;;;;;;3.72;2.13;;;;;;;6.31;100.00;99808.44;5000750;28;20067;-79
2022/11/30 07:28:57;;;;;;;3.00;1.55;;;;;;;6.46;100.00;99820.06;4998036;28;20193;-79
2022/11/30 07:31:27;;;;;;;2.37;1.20;;;;;;;6.46;100.00;99825.22;5008889;28;20042;-79
2022/11/30 07:33:56;;;;;;;5.38;1.70;;;;;;;6.43;100.00;99817.38;5010088;28;20291;-76
2022/11/30 07:36:26;;;;;;;2.42;1.40;;;;;;;6.46;100.00;99830.34;5009985;28;20041;-76
2022/11/30 07:38:55;;;;;;;5.05;2.08;;;;;;;6.46;100.00;99814.94;5010128;28;20066;-78
2022/11/30 07:41:25;;;;;;;2.45;1.48;;;;;;;6.51;100.00;99807.38;5007718;28;20164;-78
2022/11/30 07:43:54;;;;;;;2.85;1.50;;;;;;;6.48;100.00;99815.84;4999006;28;20042;-75
2022/11/30 07:46:23;;;;;;;2.85;1.40;;;;;;;6.55;100.00;99795.47;5029635;28;20045;-78
2022/11/30 07:48:52;;;;;;;2.22;1.52;;;;;;;6.59;100.00;99794.75;5027030;28;20147;-78
2022/11/30 07:51:22;;;;;;;4.68;1.42;;;;;;;6.60;100.00;99796.50;5027930;28;20495;-80
2022/11/30 07:53:51;;;;;;;2.85;1.77;;;;;;;6.55;100.00;99792.91;5029712;28;20057;-80
2022/11/30 07:56:21;;;;;;;2.30;1.42;;;;;;;6.53;100.00;99768.84;5014384;28;20513;-79
2022/11/30 07:58:54;;;;;;;2.17;1.30;;;;;;;6.48;100.00;99771.28;5014275;28;20056;-75
2022/11/30 08:01:22;;;;;;;;;;;;;;;6.50;100.00;99767.94;5022255;28;20060;-75
2022/11/30 08:03:52;;;;;;;2.88;1.48;;;;;;;6.49;100.00;99761.06;5018173;28;19968;-77
2022/11/30 08:06:22;;;;;;;3.72;1.75;;;;;;;6.49;100.00;99757.63;5028712;28;20057;-77
2022/11/30 08:08:53;;;;;;;2.35;1.30;;;;;;;6.53;100.00;99754.31;5026394;28;20530;-76
2022/11/30 08:11:22;;;;;;;6.32;1.38;;;;;;;6.52;100.00;99746.56;5021793;28;20042;-76
2022/11/30 08:13:53;;;;;;;2.15;1.33;;;;;;;6.52;100.00;99746.56;5029016;28;20510;-76
2022/11/30 08:16:24;;;;;;;2.38;1.48;;;;;;;6.49;100.00;99732.78;5029871;28;20052;-77
2022/11/30 08:21:36;;;;;;;2.53;1.30;;;;;;;6.54;100.00;99716.63;5021314;28;20104;-76
2022/11/30 08:24:05;;;;;;;3.17;1.67;;;;;;;6.56;100.00;99708.13;5028347;28;20045;-76
2022/11/30 08:26:35;;;;;;;3.20;1.13;;;;;;;6.56;100.00;99712.41;5024891;28;20053;-76
2022/11/30 08:29:05;;;;;;;6.43;2.20;;;;;;;6.56;100.00;99707.28;5028739;28;20051;-80
2022/11/30 08:31:35;;;;;;;5.53;1.48;;;;;;;6.55;100.00;99708.97;5025114;28;20746;-78
2022/11/30 08:34:05;;;;;;;2.05;1.15;;;;;;;6.57;100.00;99714.13;5023963;28;20054;-80
2022/11/30 08:36:34;;;;;;;2.35;1.23;;;;;;;6.61;100.00;99710.84;5021966;28;20049;-80
2022/11/30 08:39:05;;;;;;;4.00;1.63;;;;;;;6.62;100.00;99704.84;5022586;28;20046;-79
2022/11/30 08:41:35;;;;;;;1.88;1.23;;;;;;;6.60;100.00;99691.13;5029355;28;20529;-78
2022/11/30 08:44:05;;;;;;;1.60;0.98;;;;;;;6.63;100.00;99701.47;5015940;28;20050;-83
2022/11/30 08:46:35;;;;;;;3.88;1.30;;;;;;;6.63;100.00;99694.63;5022042;28;20060;-79
2022/11/30 08:49:04;;;;;;;2.83;1.63;;;;;;;6.63;100.00;99693.75;5027070;28;20053;-83
2022/11/30 08:51:32;;;;;;;1.70;1.00;;;;;;;6.65;100.00;99681.81;5029081;28;20052;-78
2022/11/30 08:54:01;;;;;;;2.47;1.27;;;;;;;6.60;100.00;99681.69;5029602;28;20060;-80
2022/11/30 08:56:29;;;;;;;4.85;1.20;;;;;;;6.60;100.00;99666.28;5033964;28;20049;-80
2022/11/30 08:58:58;;;;;;;3.03;1.52;;;;;;;6.61;100.00;99672.28;5034038;28;20049;-78
2022/11/30 09:01:28;;;;;;;2.60;0.98;;;;;;;6.58;100.00;99655.06;5032275;28;20042;-78
2022/11/30 09:03:57;;;;;;;2.38;1.08;;;;;;;6.61;100.00;99644.00;5031288;28;20052;-79
2022/11/30 09:06:30;;;;;;;2.47;1.05;;;;;;;6.63;100.00;99634.66;5033337;28;20080;-75
2022/11/30 09:09:00;;;;;;;2.35;1.20;;;;;;;6.62;100.00;99625.16;5031015;28;20101;-77
2022/11/30 09:11:30;;;;;;;4.68;1.42;;;;;;;6.66;100.00;99616.72;5033063;28;20064;-77
2022/11/30 09:14:00;;;;;;;4.82;1.80;;;;;;;6.62;100.00;99622.59;5033393;28;20042;-80
2022/11/30 09:16:30;;;;;;;4.57;1.13;;;;;;;6.68;100.00;99607.34;5031149;28;20050;-78
2022/11/30 09:18:59;;;;;;;2.72;1.30;;;;;;;6.70;100.00;99606.56;5030884;28;20045;-77
2022/11/30 09:21:28;;;;;;;1.92;1.38;;;;;;;6.70;100.00;99603.13;5031661;28;20103;-79
2022/11/30 09:23:57;;;;;;;2.30;1.25;;;;;;;6.74;100.00;99599.81;5033165;28;20108;-77
2022/11/30 09:26:25;;;;;;;3.15;1.30;;;;;;;6.75;100.00;99598.97;5032414;28;20049;-77
2022/11/30 09:28:54;;;;;;;2.50;1.15;;;;;;;6.75;100.00;99574.97;5025049;28;20041;-78
2022/11/30 09:31:25;;;;;;;1.95;1.00;;;;;;;6.79;100.00;99564.81;5030813;28;20049;-79
2022/11/30 09:33:57;;;;;;;2.20;1.13;;;;;;;6.79;100.00;99580.22;5030172;28;20499;-77
2022/11/30 09:36:28;;;;;;;1.25;0.57;;;;;;;6.78;100.00;99569.91;5029754;28;20064;-78
2022/11/30 09:38:57;;;;;;;3.28;1.10;;;;;;;6.83;100.00;99561.50;5028571;28;20054;-75
2022/11/30 09:41:52;;;;;;;1.17;0.90;;;;;;;6.81;100.00;99559.72;5031820;28;20055;-77
2022/11/30 09:44:26;;;;;;;2.70;1.20;;;;;;;6.85;100.00;99546.97;5027959;28;20057;-76
2022/11/30 09:47:03;;;;;;;2.65;1.30;;;;;;;6.87;100.00;99537.59;5030819;28;20049;-77
2022/11/30 09:49:36;;;;;;;1.08;0.73;;;;;;;6.86;100.00;99535.84;5030204;28;20076;-75
2022/11/30 09:52:12;;;;;;;0.90;0.70;;;;;;;6.95;100.00;99531.78;5028652;28;20514;-75
2022/11/30 09:54:42;;;;;;;2.90;1.00;;;;;;;6.92;100.00;99500.00;5021047;28;20419;-78
2022/11/30 09:57:25;;;;;;;1.83;0.65;;;;;;;6.95;100.00;99482.91;5014123;28;20050;-77
2022/11/30 09:59:57;;;;;;;2.40;1.17;;;;;;;6.98;100.00;99485.53;5015910;28;20499;-77
2022/11/30 10:02:29;;;;;;;2.65;1.55;;;;;;;6.97;100.00;99483.81;5026124;28;20045;-77
2022/11/30 10:04:59;;;;;;;1.25;0.98;;;;;;;6.95;100.00;99472.63;5026609;28;20103;-75
2022/11/30 10:07:45;;;;;;;2.35;1.00;;;;;;;6.90;100.00;99475.94;5023241;28;20503;-80
2022/11/30 10:10:26;;;;;;;1.90;0.98;;;;;;;6.92;100.00;99461.44;5025883;28;20045;-76
2022/11/30 10:13:06;;;;;;;2.70;1.23;;;;;;;6.97;100.00;99461.53;5027819;28;20041;-75
2022/11/30 10:15:47;;;;;;;3.22;1.13;;;;;;;6.99;100.00;99464.16;5031149;28;20045;-76
2022/11/30 10:18:25;;;;;;;0.82;0.55;;;;;;;6.96;100.00;99464.94;5025655;28;20300;-78
2022/11/30 10:21:09;;;;;;;4.00;1.08;;;;;;;6.98;100.00;99460.69;5023333;28;20054;-79
2022/11/30 10:23:52;;;;;;;1.75;1.05;;;;;;;7.02;100.00;99461.66;5020906;28;20133;-76
2022/11/30 10:26:27;;;;;;;1.52;0.90;;;;;;;7.01;100.00;99468.50;5026272;28;20045;-77
2022/11/30 10:29:00;;;;;;;3.58;1.27;;;;;;;7.00;100.00;99458.16;5024234;28;20046;-79
2022/11/30 10:31:33;;;;;;;1.52;1.02;;;;;;;7.06;100.00;99448.03;5022976;28;20045;-78
2022/11/30 10:34:13;;;;;;;1.55;1.05;;;;;;;7.04;100.00;99459.97;5020749;28;20077;-76
2022/11/30 10:36:45;;;;;;;1.35;0.77;;;;;;;7.03;100.00;99459.13;5024553;28;20727;-80
2022/11/30 10:39:21;;;;;;;1.75;1.08;;;;;;;7.00;100.00;99464.16;5019799;28;20057;-78
2022/11/30 10:41:54;;;;;;;1.23;0.90;;;;;;;7.02;100.00;99466.78;5024009;28;20052;-73
2022/11/30 10:44:28;;;;;;;1.65;0.80;;;;;;;7.00;100.00;99466.75;5024052;28;20157;-77
2022/11/30 10:47:01;;;;;;;0.88;0.68;;;;;;;7.01;100.00;99472.75;5029992;28;20045;-76
2022/11/30 10:49:31;;;;;;;2.40;0.82;;;;;;;7.03;100.00;99482.25;5025446;28;20046;-76
2022/11/30 10:52:06;;;;;;;1.90;0.82;;;;;;;7.00;100.00;99468.44;5026708;28;20049;-77
2022/11/30 10:54:37;;;;;;;1.92;0.80;;;;;;;7.01;100.00;99473.63;5020039;28;20092;-74
2022/11/30 10:57:08;;;;;;;2.90;1.00;;;;;;;7.01;100.00;99470.19;5023825;28;20052;-80
2022/11/30 10:59:43;;;;;;;3.10;1.05;;;;;;;7.02;100.00;99462.50;5025951;28;20042;-78
2022/11/30 11:02:34;;;;;;;4.30;0.95;;;;;;;7.04;100.00;99465.13;5027686;28;20500;-80
2022/11/30 11:05:22;;;;;;;1.13;0.70;;;;;;;7.06;100.00;99461.75;5030133;28;20060;-76
2022/11/30 11:07:56;;;;;;;2.90;1.23;;;;;;;7.03;100.00;99468.50;5026268;28;20048;-74
2022/11/30 11:10:30;;;;;;;1.42;0.82;;;;;;;7.07;100.00;99452.31;5029845;28;20049;-75
2022/11/30 11:12:59;;;;;;;2.17;1.02;;;;;;;7.06;100.00;99461.75;5032155;28;20128;-79
2022/11/30 11:15:29;;;;;;;1.95;1.10;;;;;;;7.05;100.00;99436.84;5022784;28;20553;-76
2022/11/30 11:18:23;;;;;;;1.73;1.02;;;;;;;7.03;100.00;99446.25;5025183;28;20065;-76
2022/11/30 11:21:02;;;;;;;2.67;1.10;;;;;;;7.08;100.00;99451.50;5028579;28;20131;-77
2022/11/30 11:23:35;;;;;;;0.80;0.50;;;;;;;7.03;100.00;99442.78;5025675;28;20160;-76
2022/11/30 11:26:05;;;;;;;4.10;1.48;;;;;;;7.01;100.00;99459.88;5027692;28;20067;-76
2022/11/30 11:28:35;;;;;;;1.20;0.77;;;;;;;7.00;100.00;99429.88;5024081;28;20206;-74
2022/11/30 11:31:18;;;;;;;1.35;0.70;;;;;;;6.92;100.00;99419.44;5028066;28;20542;-73
2022/11/30 11:33:53;;;;;;;1.48;0.80;;;;;;;7.01;100.00;99424.78;5023812;28;20657;-76
2022/11/30 11:36:28;;;;;;;0.82;0.60;;;;;;;6.95;100.00;99428.91;5025398;28;20073;-75
2022/11/30 11:38:59;;;;;;;3.05;0.93;;;;;;;6.92;100.00;99425.44;5012742;28;20408;-77
2022/11/30 11:41:32;;;;;;;1.25;0.60;;;;;;;6.92;100.00;99429.72;5029907;28;20495;-75
2022/11/30 11:44:04;;;;;;;2.17;0.60;;;;;;;6.90;100.00;99445.09;5021582;28;20049;-79
2022/11/30 11:46:36;;;;;;;2.47;0.68;;;;;;;6.93;100.00;99444.28;5005437;28;20092;-75
2022/11/30 11:49:07;;;;;;;3.60;1.08;;;;;;;6.96;100.00;99443.50;5004361;28;20496;-76
2022/11/30 11:51:37;;;;;;;5.40;1.10;;;;;;;7.00;100.00;99455.59;4998693;28;20646;-75
2022/11/30 11:54:17;;;;;;;3.00;0.80;;;;;;;7.04;100.00;99460.84;5003269;28;20046;-75